Time;durP1;ratioP1;P1;durP2;ratioP2;P2;SDS_P1;SDS_P2;PMS_P1;PMS_P2;Temp;Humidity;BMP_temperature;BMP_pressure;BME280_temperature;BME280_humidity;BME280_pressure;Samples;Min_cycle;Max_cycle;Signal;HPM_P1;HPM_P2
2021/04/08 00:00:19;;;;;;;8.80;5.87;;;4.10;5.30;;;;;;5075054;28;20185;-79
2021/04/08 00:02:45;;;;;;;9.67;5.87;;;4.20;7.90;;;;;;5074145;28;20242;-79
2021/04/08 00:05:13;;;;;;;7.67;5.23;;;4.20;5.60;;;;;;5074791;28;20639;-77
2021/04/08 00:07:39;;;;;;;9.23;6.33;;;4.10;7.00;;;;;;5074300;28;20172;-78
2021/04/08 00:10:06;;;;;;;13.03;6.10;;;4.10;7.80;;;;;;5074671;28;20165;-82
2021/04/08 00:12:32;;;;;;;12.13;6.03;;;4.00;8.10;;;;;;5074568;28;20623;-76
2021/04/08 00:14:57;;;;;;;12.30;5.83;;;4.00;10.70;;;;;;5074480;28;20248;-79
2021/04/08 00:17:23;;;;;;;11.33;5.77;;;4.10;7.70;;;;;;5074573;28;20277;-79
2021/04/08 00:19:49;;;;;;;7.50;6.00;;;4.20;4.20;;;;;;5074320;28;20172;-82
2021/04/08 00:22:14;;;;;;;10.97;5.63;;;4.20;6.10;;;;;;5074671;28;20212;-82
2021/04/08 00:24:40;;;;;;;10.90;6.30;;;4.10;7.80;;;;;;5074474;28;20609;-85
2021/04/08 00:27:06;;;;;;;9.90;5.40;;;4.10;7.10;;;;;;5074368;28;20175;-80
2021/04/08 00:29:32;;;;;;;6.90;5.80;;;4.20;3.00;;;;;;5074274;28;20226;-85
2021/04/08 00:31:57;;;;;;;10.33;5.57;;;4.30;1.00;;;;;;5074510;28;20290;-82
2021/04/08 00:34:23;;;;;;;9.80;5.67;;;4.30;1.00;;;;;;5074114;28;20647;-85
2021/04/08 00:36:48;;;;;;;8.07;5.87;;;4.20;2.00;;;;;;5074600;28;20176;-82
2021/04/08 00:39:14;;;;;;;12.27;5.83;;;4.10;4.10;;;;;;5074612;28;20187;-83
2021/04/08 00:41:40;;;;;;;8.30;5.83;;;4.00;6.30;;;;;;5074320;28;20247;-85
2021/04/08 00:44:07;;;;;;;8.40;5.53;;;4.00;7.10;;;;;;5073934;28;20165;-84
2021/04/08 00:46:32;;;;;;;7.73;5.43;;;4.00;7.50;;;;;;5074241;28;20180;-84
2021/04/08 00:48:58;;;;;;;9.53;6.27;;;4.00;5.20;;;;;;5073564;28;20168;-85
2021/04/08 00:51:24;;;;;;;11.73;5.63;;;4.00;4.20;;;;;;5074234;28;20200;-82
2021/04/08 00:53:51;;;;;;;8.47;5.20;;;3.90;4.10;;;;;;5073954;28;20538;-83
2021/04/08 00:56:17;;;;;;;9.33;5.53;;;3.80;6.60;;;;;;5074101;28;20628;-84
2021/04/08 00:58:44;;;;;;;9.67;6.00;;;3.70;7.60;;;;;;5073787;28;20175;-82
2021/04/08 01:01:11;;;;;;;9.27;6.00;;;3.70;9.20;;;;;;5073913;28;20176;-84
2021/04/08 01:03:37;;;;;;;8.60;5.90;;;3.70;9.80;;;;;;5073423;28;20698;-78
2021/04/08 01:06:03;;;;;;;9.93;6.30;;;3.60;11.00;;;;;;5073990;28;20168;-86
2021/04/08 01:08:30;;;;;;;9.23;6.07;;;3.60;12.90;;;;;;5074072;28;20198;-85
2021/04/08 01:10:55;;;;;;;11.60;5.97;;;3.60;13.30;;;;;;5073645;28;20655;-82
2021/04/08 01:13:22;;;;;;;8.53;6.00;;;3.60;11.80;;;;;;5074039;28;20168;-82
2021/04/08 01:15:48;;;;;;;13.40;5.53;;;3.60;12.00;;;;;;5073660;28;20157;-82
2021/04/08 01:18:56;;;;;;;8.47;5.90;;;3.60;10.10;;;;;;5073410;28;20563;-85
2021/04/08 01:21:32;;;;;;;9.10;5.70;;;3.70;8.10;;;;;;4974045;28;20201;-82
2021/04/08 01:24:23;;;;;;;10.37;5.77;;;3.70;4.60;;;;;;5067539;28;20191;-83
2021/04/08 01:27:22;;;;;;;10.87;6.03;;;3.60;6.60;;;;;;5073968;28;20169;-84
2021/04/08 01:30:22;;;;;;;9.37;5.43;;;3.60;5.90;;;;;;5073065;28;20717;-85
2021/04/08 01:32:53;;;;;;;9.07;5.53;;;3.70;5.10;;;;;;5017665;28;20647;-83
2021/04/08 01:35:24;;;;;;;11.50;6.30;;;3.80;1.00;;;;;;5073311;28;20207;-81
2021/04/08 01:38:00;;;;;;;11.10;5.57;;;3.80;1.00;;;;;;5055085;28;20650;-76
2021/04/08 01:40:28;;;;;;;9.03;5.90;;;3.80;1.00;;;;;;5073359;28;20542;-81
2021/04/08 01:42:55;;;;;;;8.77;5.90;;;3.80;1.80;;;;;;5073193;28;20271;-83
2021/04/08 01:45:22;;;;;;;9.03;5.70;;;3.70;3.00;;;;;;5073190;28;20202;-85
2021/04/08 01:47:50;;;;;;;11.63;5.80;;;3.70;3.40;;;;;;5072615;28;20267;-78
2021/04/08 01:50:18;;;;;;;10.00;5.60;;;3.60;3.00;;;;;;5073014;28;20582;-83
2021/04/08 01:52:47;;;;;;;9.80;5.97;;;3.60;4.20;;;;;;5055161;28;20666;-81
2021/04/08 01:55:15;;;;;;;10.27;5.87;;;3.60;4.00;;;;;;5072974;28;20217;-84
2021/04/08 01:57:44;;;;;;;9.50;5.57;;;3.60;4.00;;;;;;5073058;28;20174;-83
2021/04/08 02:00:12;;;;;;;11.60;5.93;;;3.50;2.80;;;;;;5073828;28;20171;-84
2021/04/08 02:02:41;;;;;;;8.87;6.03;;;3.40;5.30;;;;;;5073381;28;20211;-81
2021/04/08 02:05:10;;;;;;;9.17;5.70;;;3.40;7.80;;;;;;5074821;28;20229;-81
2021/04/08 02:07:36;;;;;;;10.57;5.20;;;3.30;10.50;;;;;;5074034;28;20240;-82
2021/04/08 02:10:06;;;;;;;10.07;5.83;;;3.40;9.00;;;;;;5054963;28;20246;-84
2021/04/08 02:12:32;;;;;;;11.30;5.63;;;3.50;4.00;;;;;;5073092;28;20174;-84
2021/04/08 02:14:58;;;;;;;10.33;5.37;;;3.50;3.20;;;;;;5072950;28;20168;-80
2021/04/08 02:17:24;;;;;;;10.30;6.00;;;3.60;2.70;;;;;;5072514;28;20255;-78
2021/04/08 02:19:51;;;;;;;10.20;6.33;;;3.60;1.00;;;;;;5072900;28;20199;-83
2021/04/08 02:22:18;;;;;;;10.53;6.03;;;3.60;1.00;;;;;;5072956;28;20204;-84
2021/04/08 02:24:44;;;;;;;8.87;5.63;;;3.70;1.00;;;;;;5072993;28;20169;-77
2021/04/08 02:27:10;;;;;;;11.87;5.93;;;3.70;1.00;;;;;;5076479;28;20233;-80
2021/04/08 02:29:38;;;;;;;8.57;5.40;;;3.70;1.00;;;;;;5058892;28;20191;-84
2021/04/08 02:32:05;;;;;;;8.67;5.73;;;3.80;1.00;;;;;;5076261;28;20176;-82
2021/04/08 02:34:31;;;;;;;10.03;5.93;;;3.70;1.00;;;;;;5076962;28;20181;-76
2021/04/08 02:36:56;;;;;;;8.73;5.93;;;3.70;1.00;;;;;;5076435;28;20663;-83
2021/04/08 02:39:22;;;;;;;8.33;6.13;;;3.90;1.00;;;;;;5076861;28;20218;-79
2021/04/08 02:41:48;;;;;;;9.30;5.50;;;4.00;1.00;;;;;;5076439;28;20184;-82
2021/04/08 02:44:15;;;;;;;9.00;5.50;;;4.10;1.00;;;;;;5076652;28;20172;-85
2021/04/08 02:46:41;;;;;;;8.90;5.90;;;4.00;1.00;;;;;;5076268;28;20526;-81
2021/04/08 02:49:07;;;;;;;8.20;5.80;;;4.00;1.00;;;;;;5076515;28;20245;-81
2021/04/08 02:51:45;;;;;;;11.70;5.47;;;4.00;1.00;;;;;;5076289;28;20188;-79
2021/04/08 02:54:13;;;;;;;8.13;5.47;;;3.90;1.00;;;;;;5076342;28;20195;-85
2021/04/08 02:56:51;;;;;;;9.97;5.73;;;4.10;1.00;;;;;;5058635;28;20595;-82
2021/04/08 02:59:34;;;;;;;9.13;5.27;;;4.30;1.00;;;;;;5076036;28;20176;-77
2021/04/08 03:02:05;;;;;;;9.83;5.67;;;4.30;1.00;;;;;;5075856;28;20207;-81
2021/04/08 03:04:39;;;;;;;9.97;6.23;;;4.10;1.00;;;;;;5076416;28;20548;-84
2021/04/08 03:07:06;;;;;;;8.80;5.63;;;4.00;1.00;;;;;;5076518;28;20193;-83
2021/04/08 03:09:35;;;;;;;8.43;5.43;;;4.00;1.00;;;;;;5076696;28;20226;-79
2021/04/08 03:12:05;;;;;;;9.77;5.60;;;4.10;1.00;;;;;;5076688;28;20164;-82
2021/04/08 03:14:34;;;;;;;8.00;5.30;;;4.10;1.00;;;;;;5075970;28;20642;-83
2021/04/08 03:17:01;;;;;;;10.80;5.53;;;4.10;1.00;;;;;;5075865;28;20601;-84
2021/04/08 03:19:28;;;;;;;9.07;5.87;;;4.30;1.00;;;;;;5076181;28;20199;-82
2021/04/08 03:21:54;;;;;;;10.83;5.50;;;4.50;1.00;;;;;;5075876;28;20196;-85
2021/04/08 03:24:22;;;;;;;9.97;5.10;;;4.30;1.00;;;;;;5076145;28;20184;-78
2021/04/08 03:26:49;;;;;;;10.93;5.90;;;4.10;1.00;;;;;;5075997;28;20195;-84
2021/04/08 03:29:15;;;;;;;8.47;5.60;;;4.00;1.00;;;;;;5075630;28;20200;-83
2021/04/08 03:31:45;;;;;;;10.60;6.17;;;3.90;1.00;;;;;;5075606;28;20518;-82
2021/04/08 03:34:11;;;;;;;9.27;5.80;;;4.00;1.00;;;;;;5075727;28;20168;-75
2021/04/08 03:36:38;;;;;;;13.83;6.43;;;4.00;1.00;;;;;;5075063;28;20250;-84
2021/04/08 03:39:08;;;;;;;8.77;5.40;;;4.00;1.00;;;;;;5075266;28;20165;-83
2021/04/08 03:41:44;;;;;;;9.90;5.20;;;4.20;1.00;;;;;;5057804;28;20176;-85
2021/04/08 03:44:13;;;;;;;16.90;6.70;;;4.10;1.00;;;;;;5075028;28;20798;-75
2021/04/08 03:46:41;;;;;;;10.00;5.83;;;4.00;1.00;;;;;;5075264;28;20169;-82
2021/04/08 03:49:09;;;;;;;11.10;5.73;;;4.00;1.00;;;;;;5075157;28;20172;-76
2021/04/08 03:51:36;;;;;;;11.50;6.17;;;4.10;1.00;;;;;;5075202;28;20218;-80
2021/04/08 03:54:15;;;;;;;8.07;5.43;;;4.10;1.00;;;;;;5074634;28;20198;-81
2021/04/08 03:56:44;;;;;;;10.23;5.73;;;4.10;1.00;;;;;;5075173;28;20168;-81
2021/04/08 03:59:10;;;;;;;9.93;5.87;;;4.10;1.00;;;;;;5074650;28;20161;-74
2021/04/08 04:01:37;;;;;;;9.83;5.90;;;4.10;1.00;;;;;;5074881;28;20578;-77
2021/04/08 04:04:10;;;;;;;11.83;6.20;;;4.20;1.00;;;;;;5056530;28;20184;-79
2021/04/08 04:06:39;;;;;;;10.73;5.50;;;4.40;1.00;;;;;;5075809;28;20173;-75
2021/04/08 04:09:06;;;;;;;9.70;5.87;;;4.50;1.00;;;;;;5076142;28;20172;-79
2021/04/08 04:11:32;;;;;;;7.73;5.30;;;4.40;1.00;;;;;;5074650;28;20195;-75
2021/04/08 04:14:00;;;;;;;10.03;5.87;;;4.40;1.00;;;;;;5074701;28;20183;-81
2021/04/08 04:16:29;;;;;;;9.80;5.80;;;4.30;1.00;;;;;;5074639;28;20169;-76
2021/04/08 04:18:55;;;;;;;7.60;5.70;;;4.40;1.00;;;;;;5074862;28;20173;-75
2021/04/08 04:21:21;;;;;;;12.27;6.30;;;4.30;1.00;;;;;;5074503;28;20221;-75
2021/04/08 04:23:46;;;;;;;9.67;5.97;;;4.30;1.00;;;;;;5074312;28;20295;-76
2021/04/08 04:26:13;;;;;;;12.43;6.03;;;4.30;1.00;;;;;;5074214;28;20613;-75
2021/04/08 04:28:39;;;;;;;10.60;6.33;;;4.40;1.00;;;;;;5073661;28;20261;-76
2021/04/08 04:31:04;;;;;;;11.37;6.13;;;4.40;1.00;;;;;;5073737;28;20164;-76
2021/04/08 04:33:30;;;;;;;10.67;6.07;;;4.60;1.00;;;;;;5074027;28;20507;-75
2021/04/08 04:35:56;;;;;;;12.93;5.70;;;4.50;1.00;;;;;;5055728;28;20259;-76
2021/04/08 04:38:22;;;;;;;9.30;5.70;;;4.40;1.00;;;;;;5073744;28;20255;-75
2021/04/08 04:40:48;;;;;;;12.30;6.53;;;4.40;1.00;;;;;;5073791;28;20721;-75
2021/04/08 04:43:13;;;;;;;8.63;5.70;;;4.30;1.00;;;;;;5073792;28;20200;-76
2021/04/08 04:45:39;;;;;;;8.33;5.80;;;4.20;1.00;;;;;;5073953;28;20172;-74
2021/04/08 04:48:05;;;;;;;9.60;6.10;;;4.30;1.00;;;;;;5073324;28;20195;-80
2021/04/08 04:50:31;;;;;;;12.53;7.03;;;4.20;1.00;;;;;;5073487;28;20184;-76
2021/04/08 04:52:57;;;;;;;12.60;6.90;;;4.20;1.00;;;;;;5073933;28;20164;-82
2021/04/08 04:55:22;;;;;;;10.33;5.97;;;4.20;1.00;;;;;;5073547;28;20169;-76
2021/04/08 04:57:48;;;;;;;13.20;6.53;;;4.40;1.00;;;;;;5073713;28;20210;-79
2021/04/08 05:00:14;;;;;;;8.83;6.20;;;4.40;1.00;;;;;;5073856;28;20170;-79
2021/04/08 05:02:39;;;;;;;10.67;6.47;;;4.30;1.00;;;;;;5074128;28;20204;-76
2021/04/08 05:05:06;;;;;;;9.20;6.17;;;4.20;1.00;;;;;;5073488;28;20168;-81
2021/04/08 05:07:31;;;;;;;13.10;5.83;;;4.20;1.00;;;;;;5073409;28;20183;-76
2021/04/08 05:09:57;;;;;;;10.33;6.70;;;4.20;1.00;;;;;;5072990;28;20168;-82
2021/04/08 05:12:22;;;;;;;11.57;6.10;;;4.20;1.00;;;;;;5073352;28;20418;-80
2021/04/08 05:14:50;;;;;;;13.33;6.37;;;4.10;1.00;;;;;;5073239;28;20668;-76
2021/04/08 05:17:16;;;;;;;8.03;5.83;;;4.10;1.00;;;;;;5073349;28;20202;-76
2021/04/08 05:19:41;;;;;;;11.83;6.07;;;4.10;1.00;;;;;;5072866;28;20176;-82
2021/04/08 05:22:07;;;;;;;15.17;7.53;;;4.00;1.00;;;;;;5073069;28;20207;-75
2021/04/08 05:24:32;;;;;;;14.17;7.13;;;4.10;1.00;;;;;;5072845;28;20233;-76
2021/04/08 05:26:59;;;;;;;10.27;6.00;;;4.10;1.00;;;;;;5073106;28;20172;-76
2021/04/08 05:29:24;;;;;;;10.47;6.27;;;4.00;1.00;;;;;;5072742;28;20216;-76
2021/04/08 05:31:50;;;;;;;12.93;6.67;;;4.00;1.00;;;;;;5073018;28;20173;-81
2021/04/08 05:34:15;;;;;;;13.83;6.87;;;4.00;1.00;;;;;;5073091;28;20176;-80
2021/04/08 05:36:41;;;;;;;10.50;6.67;;;4.10;1.00;;;;;;5073111;28;20602;-82
2021/04/08 05:39:07;;;;;;;8.90;6.60;;;4.30;1.00;;;;;;5072830;28;20194;-81
2021/04/08 05:41:32;;;;;;;20.03;10.50;;;4.30;1.00;;;;;;5073108;28;20160;-80
2021/04/08 05:43:58;;;;;;;13.60;6.97;;;4.20;1.00;;;;;;5072968;28;20212;-75
2021/04/08 05:46:24;;;;;;;15.17;7.57;;;4.30;1.00;;;;;;5054902;28;20176;-82
2021/04/08 05:48:49;;;;;;;14.33;7.20;;;4.20;1.00;;;;;;5073257;28;20561;-78
2021/04/08 05:51:15;;;;;;;12.67;6.47;;;4.20;1.00;;;;;;5072833;28;20238;-81
2021/04/08 05:53:41;;;;;;;12.47;7.00;;;4.20;1.00;;;;;;5073092;28;20168;-78
2021/04/08 05:56:06;;;;;;;14.20;6.53;;;4.20;1.00;;;;;;5054812;28;20183;-81
2021/04/08 05:58:32;;;;;;;11.13;6.83;;;4.20;1.00;;;;;;5072891;28;20534;-80
2021/04/08 06:00:57;;;;;;;13.47;7.13;;;4.20;1.00;;;;;;5072101;28;20164;-82
2021/04/08 06:03:23;;;;;;;12.57;7.13;;;4.30;1.00;;;;;;5072789;28;20206;-80
2021/04/08 06:05:49;;;;;;;17.83;7.37;;;4.30;1.00;;;;;;5072502;28;20173;-82
2021/04/08 06:08:15;;;;;;;16.37;7.20;;;4.40;1.00;;;;;;5072381;28;20179;-85
2021/04/08 06:10:40;;;;;;;13.50;8.53;;;4.40;1.00;;;;;;5072793;28;20255;-76
2021/04/08 06:13:07;;;;;;;14.50;9.73;;;4.50;1.00;;;;;;5072689;28;20175;-76
2021/04/08 06:15:33;;;;;;;11.10;7.47;;;4.50;1.00;;;;;;5072462;28;20161;-76
2021/04/08 06:17:59;;;;;;;18.67;7.33;;;4.60;1.00;;;;;;5072556;28;20168;-83
2021/04/08 06:20:24;;;;;;;15.03;7.40;;;4.60;1.00;;;;;;5072226;28;20184;-84
2021/04/08 06:22:56;;;;;;;19.73;7.43;;;4.80;1.00;;;;;;5072259;28;20239;-79
2021/04/08 06:25:23;;;;;;;11.93;6.70;;;4.80;1.00;;;;;;5072672;28;20169;-81
2021/04/08 06:27:49;;;;;;;14.17;7.30;;;4.80;1.00;;;;;;5072590;28;20169;-83
2021/04/08 06:30:16;;;;;;;13.70;7.20;;;4.80;1.00;;;;;;5072339;28;20165;-77
2021/04/08 06:32:41;;;;;;;13.57;7.73;;;5.10;1.00;;;;;;5072971;28;20176;-79
2021/04/08 06:35:08;;;;;;;12.20;6.90;;;5.10;1.00;;;;;;5072336;28;20172;-76
2021/04/08 06:37:33;;;;;;;13.40;7.00;;;5.20;1.00;;;;;;5071841;28;20172;-80
2021/04/08 06:39:59;;;;;;;11.77;6.70;;;5.20;1.00;;;;;;5072080;28;20188;-81
2021/04/08 06:42:26;;;;;;;13.23;7.27;;;5.20;1.00;;;;;;5072166;28;20410;-75
2021/04/08 06:44:53;;;;;;;14.90;7.77;;;5.30;1.00;;;;;;5071737;28;20168;-78
2021/04/08 06:47:47;;;;;;;14.67;7.80;;;5.50;1.00;;;;;;5071623;28;20176;-79
2021/04/08 06:50:13;;;;;;;17.10;7.67;;;5.60;1.00;;;;;;5058385;28;20209;-83
2021/04/08 06:52:40;;;;;;;12.03;7.83;;;5.40;1.00;;;;;;5072024;28;20204;-80
2021/04/08 06:55:08;;;;;;;16.20;7.13;;;5.50;1.00;;;;;;5072408;28;20259;-80
2021/04/08 06:57:34;;;;;;;14.13;7.53;;;5.70;1.00;;;;;;5072125;28;20217;-75
2021/04/08 07:00:02;;;;;;;13.00;7.37;;;5.70;1.00;;;;;;5072239;28;20203;-81
2021/04/08 07:02:28;;;;;;;15.30;7.40;;;5.80;1.00;;;;;;5071263;28;20208;-77
2021/04/08 07:04:55;;;;;;;16.17;8.23;;;5.80;1.00;;;;;;5054250;28;20275;-82
2021/04/08 07:07:21;;;;;;;15.77;7.97;;;5.80;1.00;;;;;;5071786;28;20165;-81
2021/04/08 07:09:48;;;;;;;21.40;7.47;;;5.70;1.00;;;;;;5072284;28;20529;-83
2021/04/08 07:12:14;;;;;;;17.10;7.30;;;5.80;1.00;;;;;;5073564;28;20596;-76
2021/04/08 07:14:40;;;;;;;12.27;6.63;;;5.80;1.00;;;;;;5075845;28;20187;-77
2021/04/08 07:17:12;;;;;;;16.80;7.10;;;5.70;1.00;;;;;;5076182;28;20704;-78
2021/04/08 07:19:39;;;;;;;11.67;6.60;;;5.90;1.00;;;;;;5077249;28;20641;-76
2021/04/08 07:22:05;;;;;;;14.77;7.00;;;5.80;1.00;;;;;;5074908;28;20196;-83
2021/04/08 07:24:44;;;;;;;16.00;7.20;;;5.80;1.00;;;;;;5075388;28;20181;-77
2021/04/08 07:27:16;;;;;;;12.77;7.33;;;5.80;1.00;;;;;;5078063;28;20184;-77
2021/04/08 07:29:41;;;;;;;13.80;8.37;;;5.90;1.00;;;;;;5079886;28;20188;-84
2021/04/08 07:32:09;;;;;;;13.13;7.40;;;5.80;1.00;;;;;;5074483;28;20537;-80
2021/04/08 07:34:38;;;;;;;15.93;6.67;;;5.80;1.00;;;;;;5074863;28;20188;-85
2021/04/08 07:37:05;;;;;;;14.70;7.40;;;5.90;1.00;;;;;;5057218;28;20199;-87
2021/04/08 07:39:49;;;;;;;11.13;7.00;;;5.90;1.00;;;;;;5075071;28;20508;-81
2021/04/08 07:42:18;;;;;;;15.10;6.90;;;5.90;1.00;;;;;;5057011;28;20636;-80
2021/04/08 07:44:51;;;;;;;15.73;7.33;;;5.90;1.00;;;;;;5077185;28;20168;-81
2021/04/08 07:47:20;;;;;;;13.53;7.00;;;5.90;1.00;;;;;;5076028;28;20175;-80
2021/04/08 07:49:48;;;;;;;12.70;6.73;;;6.00;1.00;;;;;;5076107;28;20176;-83
2021/04/08 07:52:26;;;;;;;13.10;7.03;;;6.10;1.00;;;;;;5076244;28;20168;-81
2021/04/08 07:55:04;;;;;;;9.57;6.80;;;6.10;1.00;;;;;;5075808;28;20163;-84
2021/04/08 07:57:31;;;;;;;12.90;7.13;;;6.30;1.00;;;;;;5057209;28;20176;-83
2021/04/08 07:59:56;;;;;;;14.70;7.07;;;6.30;1.00;;;;;;5076535;28;20196;-83
2021/04/08 08:02:27;;;;;;;12.20;6.87;;;6.30;1.00;;;;;;5075986;28;20487;-79
2021/04/08 08:05:31;;;;;;;12.10;6.97;;;6.40;1.00;;;;;;5076040;28;20203;-82
2021/04/08 08:08:17;;;;;;;9.40;6.90;;;6.50;1.00;;;;;;5073162;28;20634;-81
2021/04/08 08:10:58;;;;;;;17.13;7.30;;;6.60;1.00;;;;;;5080265;28;20214;-80
2021/04/08 08:13:27;;;;;;;15.27;7.03;;;6.80;1.00;;;;;;5084839;28;20164;-77
2021/04/08 08:15:55;;;;;;;10.10;6.20;;;7.10;99.90;;;;;;5087930;28;20191;-76
2021/04/08 08:18:39;;;;;;;12.70;7.03;;;7.20;99.90;;;;;;5080973;28;20536;-83
2021/04/08 08:21:07;;;;;;;14.07;6.77;;;7.00;99.90;;;;;;5075730;28;20176;-82
2021/04/08 08:23:39;;;;;;;11.93;6.83;;;7.00;99.90;;;;;;5075627;28;20298;-84
2021/04/08 08:26:31;;;;;;;11.53;5.77;;;7.20;99.90;;;;;;5057514;28;20168;-85
2021/04/08 08:29:01;;;;;;;10.23;5.87;;;7.30;1.00;;;;;;5080378;28;20214;-82
2021/04/08 08:31:42;;;;;;;10.27;5.30;;;7.30;1.00;;;;;;5075802;28;20203;-82
2021/04/08 08:34:16;;;;;;;13.33;5.57;;;7.30;1.00;;;;;;5074990;28;20583;-81
2021/04/08 08:36:43;;;;;;;11.33;6.10;;;7.20;1.00;;;;;;5076012;28;20172;-84
2021/04/08 08:39:12;;;;;;;10.30;6.37;;;7.20;87.50;;;;;;5075718;28;20164;-82
2021/04/08 08:41:38;;;;;;;14.00;6.33;;;7.20;1.00;;;;;;5076573;28;20169;-80
2021/04/08 08:44:10;;;;;;;14.70;6.40;;;7.20;1.00;;;;;;5076056;28;20253;-84
2021/04/08 08:46:51;;;;;;;14.73;6.00;;;7.30;1.00;;;;;;5076422;28;20164;-84
2021/04/08 08:49:23;;;;;;;13.80;6.27;;;7.30;1.00;;;;;;5074654;28;20549;-84
2021/04/08 08:51:51;;;;;;;13.43;6.07;;;7.30;90.60;;;;;;5076361;28;20554;-79
2021/04/08 08:54:18;;;;;;;13.90;6.67;;;7.40;1.00;;;;;;5075420;28;20161;-80
2021/04/08 08:56:44;;;;;;;15.50;7.07;;;7.40;99.90;;;;;;5075684;28;20210;-83
2021/04/08 08:59:11;;;;;;;11.40;6.60;;;7.40;1.00;;;;;;5075683;28;20164;-79
2021/04/08 09:01:39;;;;;;;13.17;6.67;;;7.50;1.00;;;;;;5075138;28;20176;-84
2021/04/08 09:04:05;;;;;;;8.03;5.77;;;7.60;99.90;;;;;;5073837;28;20219;-82
2021/04/08 09:06:32;;;;;;;13.17;6.20;;;7.80;1.00;;;;;;5056201;28;20556;-78
2021/04/08 09:09:05;;;;;;;9.77;5.87;;;7.70;1.00;;;;;;5074145;28;20655;-84
2021/04/08 09:11:33;;;;;;;15.57;6.40;;;7.70;99.90;;;;;;5074529;28;20180;-83
2021/04/08 09:14:00;;;;;;;10.33;6.10;;;7.60;1.00;;;;;;5074267;28;20206;-82
2021/04/08 09:16:28;;;;;;;8.80;5.50;;;7.50;99.90;;;;;;5039662;28;20211;-78
2021/04/08 09:19:01;;;;;;;10.93;6.47;;;7.40;99.90;;;;;;5056400;28;20168;-82
2021/04/08 09:21:30;;;;;;;8.97;6.73;;;7.50;1.00;;;;;;5074032;28;20226;-85
2021/04/08 09:24:19;;;;;;;9.67;5.80;;;7.60;99.90;;;;;;5074408;28;20210;-78
2021/04/08 09:26:52;;;;;;;14.27;6.50;;;7.70;99.90;;;;;;5074406;28;20180;-81
2021/04/08 09:29:36;;;;;;;12.43;6.97;;;7.80;63.80;;;;;;5073605;28;20313;-78
2021/04/08 09:32:34;;;;;;;12.03;6.33;;;7.90;1.00;;;;;;5073634;28;20172;-81
2021/04/08 09:35:05;;;;;;;10.87;6.20;;;8.00;99.90;;;;;;5071935;28;20700;-85
2021/04/08 09:37:51;;;;;;;11.77;6.50;;;8.00;99.90;;;;;;5072537;28;20161;-79
2021/04/08 09:40:24;;;;;;;11.33;6.93;;;8.10;99.90;;;;;;5054903;28;20263;-83
2021/04/08 09:42:56;;;;;;;8.50;5.77;;;8.10;1.00;;;;;;5072406;28;20211;-81
2021/04/08 09:45:23;;;;;;;12.20;5.97;;;8.20;99.90;;;;;;5072211;28;20213;-82
2021/04/08 09:48:22;;;;;;;9.33;6.77;;;8.30;1.00;;;;;;5072723;28;20164;-77
2021/04/08 09:50:57;;;;;;;10.53;6.03;;;8.50;99.90;;;;;;5018187;28;20674;-77
2021/04/08 09:53:26;;;;;;;9.53;6.20;;;8.60;99.90;;;;;;5072789;28;20201;-75
2021/04/08 09:56:00;;;;;;;9.97;5.73;;;8.60;1.00;;;;;;5072138;28;20173;-76
2021/04/08 09:58:30;;;;;;;8.83;6.17;;;8.70;1.00;;;;;;5072521;28;20176;-85
2021/04/08 10:00:58;;;;;;;8.97;6.20;;;8.50;86.90;;;;;;5071624;28;20172;-77
2021/04/08 10:03:32;;;;;;;10.40;6.53;;;8.30;99.90;;;;;;5072275;28;20212;-81
2021/04/08 10:05:59;;;;;;;10.53;6.00;;;8.20;99.90;;;;;;5054165;28;20168;-83
2021/04/08 10:08:37;;;;;;;9.50;5.97;;;8.10;1.00;;;;;;5074363;28;20168;-82
2021/04/08 10:11:02;;;;;;;8.90;5.83;;;8.10;1.00;;;;;;5072691;28;20254;-84
2021/04/08 10:13:33;;;;;;;7.07;5.27;;;8.10;99.90;;;;;;5072643;28;20214;-84
2021/04/08 10:16:10;;;;;;;6.60;4.67;;;8.20;1.00;;;;;;5072441;28;20164;-83
2021/04/08 10:18:36;;;;;;;7.07;5.13;;;8.30;99.90;;;;;;5072841;28;20168;-84
2021/04/08 10:21:10;;;;;;;7.70;5.30;;;8.40;99.90;;;;;;5072331;28;20168;-79
2021/04/08 10:23:38;;;;;;;8.50;4.63;;;8.50;99.90;;;;;;5072512;28;20196;-83
2021/04/08 10:26:09;;;;;;;10.33;5.40;;;8.50;99.90;;;;;;5071918;28;20196;-79
2021/04/08 10:28:40;;;;;;;8.73;5.50;;;8.60;99.90;;;;;;5072659;28;20317;-84
2021/04/08 10:31:37;;;;;;;7.93;5.20;;;8.80;99.90;;;;;;5071908;28;20203;-86
2021/04/08 10:34:05;;;;;;;8.33;5.80;;;8.80;99.90;;;;;;5071491;28;20187;-82
2021/04/08 10:36:45;;;;;;;8.37;6.03;;;8.50;99.90;;;;;;5072528;28;20252;-86
2021/04/08 10:39:17;;;;;;;9.07;6.17;;;8.50;99.90;;;;;;5072622;28;20172;-86
2021/04/08 10:41:59;;;;;;;10.03;6.00;;;8.60;1.00;;;;;;5072772;28;20169;-84
2021/04/08 10:44:29;;;;;;;8.57;5.90;;;8.70;1.00;;;;;;5072560;28;20192;-84
2021/04/08 10:47:00;;;;;;;9.40;6.03;;;8.80;99.90;;;;;;5073734;28;20172;-83
2021/04/08 10:49:27;;;;;;;9.43;5.63;;;8.80;1.00;;;;;;5076487;28;20164;-80
2021/04/08 10:51:53;;;;;;;10.33;6.23;;;8.80;1.00;;;;;;5076138;28;20203;-87
2021/04/08 10:54:24;;;;;;;8.80;6.53;;;8.90;1.00;;;;;;5076195;28;20164;-84
2021/04/08 10:56:50;;;;;;;10.60;6.43;;;8.90;1.00;;;;;;5075712;28;20663;-85
2021/04/08 10:59:21;;;;;;;9.20;6.67;;;8.80;1.00;;;;;;5074866;28;20164;-82
2021/04/08 11:01:47;;;;;;;12.13;7.30;;;8.60;1.00;;;;;;5074987;28;20168;-81
2021/04/08 11:04:13;;;;;;;7.40;6.60;;;8.70;1.00;;;;;;5075984;28;20191;-82
2021/04/08 11:06:39;;;;;;;7.83;6.53;;;8.70;1.00;;;;;;5075643;28;20179;-83
2021/04/08 11:09:05;;;;;;;13.67;6.30;;;8.80;99.90;;;;;;5075508;28;20199;-84
2021/04/08 11:11:31;;;;;;;9.73;6.20;;;9.00;1.00;;;;;;5074943;28;20164;-84
2021/04/08 11:13:57;;;;;;;10.80;6.50;;;9.20;99.90;;;;;;5075291;28;20161;-84
2021/04/08 11:16:25;;;;;;;10.73;6.20;;;9.20;99.90;;;;;;5075355;28;20530;-85
2021/04/08 11:18:51;;;;;;;9.50;6.87;;;9.00;99.90;;;;;;5075034;28;20184;-86
2021/04/08 11:21:17;;;;;;;8.53;7.07;;;9.10;1.00;;;;;;5075163;28;20175;-82
2021/04/08 11:23:43;;;;;;;11.43;7.97;;;9.00;1.00;;;;;;5074482;28;20203;-81
2021/04/08 11:26:09;;;;;;;9.50;7.23;;;9.00;1.00;;;;;;5075480;28;20287;-85
2021/04/08 11:28:41;;;;;;;10.90;7.27;;;9.00;99.90;;;;;;5074641;28;20187;-83
2021/04/08 11:31:19;;;;;;;12.67;7.20;;;9.10;1.00;;;;;;5074840;28;20229;-81
2021/04/08 11:33:56;;;;;;;8.37;7.27;;;9.20;99.90;;;;;;5074651;28;20172;-77
2021/04/08 11:36:23;;;;;;;12.80;8.10;;;9.20;99.90;;;;;;5074868;28;20196;-79
2021/04/08 11:38:50;;;;;;;11.37;7.90;;;9.10;99.90;;;;;;5075199;28;20164;-81
2021/04/08 11:41:16;;;;;;;10.77;7.87;;;9.10;1.00;;;;;;5056785;28;20634;-87
2021/04/08 11:43:45;;;;;;;9.43;7.30;;;9.20;99.90;;;;;;5074876;28;20208;-79
2021/04/08 11:46:24;;;;;;;9.53;7.27;;;9.10;99.90;;;;;;5075117;28;20160;-84
2021/04/08 11:48:50;;;;;;;9.93;7.47;;;8.90;1.00;;;;;;5074735;28;20224;-83
2021/04/08 11:51:19;;;;;;;11.07;7.27;;;9.20;99.90;;;;;;5074647;28;20273;-86
2021/04/08 11:53:45;;;;;;;8.37;7.57;;;9.30;99.90;;;;;;5074588;28;20177;-78
2021/04/08 11:56:32;;;;;;;13.57;7.60;;;9.20;99.90;;;;;;5074566;28;20679;-82
2021/04/08 11:59:17;;;;;;;13.33;9.20;;;9.20;99.90;;;;;;5073760;28;20171;-86
2021/04/08 12:01:44;;;;;;;15.67;7.90;;;9.40;99.90;;;;;;5074580;28;20198;-77
2021/04/08 12:04:30;;;;;;;13.30;8.30;;;9.60;99.90;;;;;;5074124;28;20215;-83
2021/04/08 12:07:04;;;;;;;9.07;7.07;;;9.50;99.90;;;;;;5056381;28;20180;-84
2021/04/08 12:09:44;;;;;;;10.80;6.70;;;9.70;99.90;;;;;;5058631;28;20220;-81
2021/04/08 12:12:11;;;;;;;9.90;7.30;;;9.90;99.90;;;;;;5076396;28;20168;-82
2021/04/08 12:15:04;;;;;;;13.33;8.13;;;10.00;99.90;;;;;;5075485;28;20567;-75
2021/04/08 12:17:31;;;;;;;9.13;7.10;;;9.90;99.90;;;;;;5075413;28;20697;-76
2021/04/08 12:20:35;;;;;;;8.73;7.17;;;9.70;99.90;;;;;;5075801;28;20161;-83
2021/04/08 12:23:12;;;;;;;10.93;7.40;;;9.60;1.00;;;;;;4973203;28;20703;-83
2021/04/08 12:25:43;;;;;;;10.27;7.17;;;9.80;1.00;;;;;;5045788;28;20187;-81
2021/04/08 12:28:08;;;;;;;11.57;7.30;;;9.90;99.90;;;;;;5074373;28;20188;-80
2021/04/08 12:30:34;;;;;;;10.47;7.60;;;9.80;99.90;;;;;;5074052;28;20704;-85
2021/04/08 12:33:00;;;;;;;9.83;8.07;;;9.50;99.90;;;;;;5073860;28;20188;-81
2021/04/08 12:35:26;;;;;;;9.93;8.37;;;9.40;1.00;;;;;;5073054;28;20492;-81
2021/04/08 12:37:51;;;;;;;9.20;7.43;;;9.60;1.00;;;;;;5073369;28;20188;-83
2021/04/08 12:40:17;;;;;;;12.37;7.40;;;9.80;1.00;;;;;;5072991;28;20184;-81
2021/04/08 12:42:43;;;;;;;13.10;8.00;;;10.00;1.00;;;;;;5072972;28;20211;-77
2021/04/08 12:45:10;;;;;;;11.80;8.13;;;10.20;99.90;;;;;;5073260;28;20635;-81
2021/04/08 12:47:36;;;;;;;11.97;8.63;;;10.40;99.90;;;;;;5072887;28;20172;-84
2021/04/08 12:50:01;;;;;;;11.00;7.53;;;10.10;99.90;;;;;;5073356;28;20250;-76
2021/04/08 12:52:27;;;;;;;9.63;7.17;;;10.00;99.90;;;;;;5073407;28;20172;-80
2021/04/08 12:54:52;;;;;;;12.07;7.17;;;10.10;99.90;;;;;;5073253;28;20512;-80
2021/04/08 12:57:18;;;;;;;10.47;7.43;;;10.10;99.90;;;;;;5073418;28;20185;-81
2021/04/08 12:59:44;;;;;;;9.87;6.90;;;9.90;99.90;;;;;;5073070;28;20183;-85
2021/04/08 13:02:09;;;;;;;8.70;7.40;;;10.00;99.90;;;;;;5072721;28;20164;-80
2021/04/08 13:04:35;;;;;;;9.93;7.10;;;9.90;99.90;;;;;;5072618;28;20222;-77
2021/04/08 13:07:01;;;;;;;11.27;7.50;;;9.90;99.90;;;;;;5072792;28;20168;-82
2021/04/08 13:09:26;;;;;;;10.03;7.77;;;10.10;99.90;;;;;;5072138;28;20180;-78